createdAt,value
2019-04-28T00:01:01.836Z,11.69342
2019-04-28T00:04:31.792Z,11.713562
2019-04-28T00:08:01.724Z,11.743774
2019-04-28T00:11:31.847Z,11.773987
2019-04-28T00:15:02.411Z,11.804199
2019-04-28T00:18:31.800Z,11.804199
2019-04-28T00:22:02.579Z,11.804199
2019-04-28T00:25:32.505Z,11.794128
2019-04-28T00:29:02.448Z,11.824341
2019-04-28T00:32:32.655Z,11.854553
2019-04-28T00:36:02.309Z,11.874695
2019-04-28T00:39:32.246Z,11.844482
2019-04-28T00:43:02.204Z,11.804199
2019-04-28T00:46:32.134Z,11.804199
2019-04-28T00:50:02.322Z,11.773987
2019-04-28T00:53:32.050Z,11.703491
2019-04-28T00:57:01.985Z,11.703491
2019-04-28T01:00:31.928Z,11.673279
2019-04-28T01:04:02.137Z,11.69342
2019-04-28T01:07:33.139Z,11.703491
2019-04-28T01:11:02.732Z,11.733704
2019-04-28T01:14:32.695Z,11.794128
2019-04-28T01:18:03.052Z,11.804199
2019-04-28T01:21:32.970Z,11.773987
2019-04-28T01:25:02.907Z,11.794128
2019-04-28T01:28:32.852Z,11.794128
2019-04-28T01:32:02.772Z,11.713562
2019-04-28T01:35:32.712Z,11.643066
2019-04-28T01:39:02.683Z,11.643066
2019-04-28T01:42:32.592Z,11.592712
2019-04-28T01:46:02.532Z,11.582642
2019-04-28T01:49:32.470Z,11.5625
2019-04-28T01:53:02.448Z,11.522217
2019-04-28T01:56:32.381Z,11.481934
2019-04-28T02:00:03.312Z,11.381226
2019-04-28T02:03:36.235Z,11.361084
2019-04-28T02:07:07.149Z,11.340942
2019-04-28T02:10:39.967Z,11.401367
2019-04-28T02:14:09.613Z,11.481934
2019-04-28T02:17:40.109Z,11.492004
2019-04-28T02:21:10.873Z,11.542358
2019-04-28T02:24:40.941Z,11.512146
2019-04-28T02:28:11.836Z,11.522217
2019-04-28T02:31:42.026Z,11.492004
2019-04-28T02:35:11.791Z,11.512146
2019-04-28T02:38:42.720Z,11.512146
2019-04-28T02:42:12.669Z,11.512146
2019-04-28T02:45:42.604Z,11.451721
2019-04-28T02:49:12.516Z,11.401367
2019-04-28T02:52:42.510Z,11.340942
2019-04-28T02:56:12.456Z,11.31073
2019-04-28T02:59:44.600Z,11.31073
2019-04-28T03:03:15.272Z,11.340942
2019-04-28T03:06:46.203Z,11.361084
2019-04-28T03:10:20.920Z,11.340942
2019-04-28T03:13:51.285Z,11.340942
2019-04-28T03:17:21.143Z,11.340942
2019-04-28T03:20:51.659Z,11.280518
2019-04-28T03:24:21.305Z,11.230164
2019-04-28T03:27:51.023Z,11.17981
2019-04-28T03:31:42.251Z,11.159668
2019-04-28T03:34:55.681Z,11.119385
2019-04-28T03:38:27.594Z,11.028748
2019-04-28T03:42:00.131Z,10.978394
2019-04-28T03:45:30.634Z,10.897827
2019-04-28T03:49:00.950Z,10.827332
2019-04-28T03:52:31.752Z,10.827332
2019-04-28T03:56:01.915Z,10.857544
2019-04-28T03:59:32.541Z,10.857544
2019-04-28T04:03:02.510Z,10.847473
2019-04-28T04:06:32.443Z,10.827332
2019-04-28T04:10:02.392Z,10.797119
2019-04-28T04:13:32.968Z,10.797119
2019-04-28T04:17:03.248Z,10.797119
2019-04-28T04:20:33.169Z,10.797119
2019-04-28T04:24:03.129Z,10.776978
2019-04-28T04:27:33.062Z,10.787048
2019-04-28T04:31:03.429Z,10.817261
2019-04-28T04:34:32.942Z,10.817261
2019-04-28T04:38:02.909Z,10.847473
2019-04-28T04:41:32.838Z,10.907898
2019-04-28T04:45:02.762Z,10.907898
2019-04-28T04:48:32.693Z,10.93811
2019-04-28T04:52:02.622Z,10.968323
2019-04-28T04:55:32.568Z,10.998535
2019-04-28T04:59:02.892Z,11.028748
2019-04-28T05:02:33.191Z,11.038818
2019-04-28T05:06:03.420Z,11.048889
2019-04-28T05:09:33.353Z,11.109314
2019-04-28T05:13:03.349Z,11.109314
2019-04-28T05:16:33.293Z,11.129456
2019-04-28T05:20:03.218Z,11.129456
2019-04-28T05:23:33.161Z,11.119385
2019-04-28T05:27:04.091Z,11.048889
2019-04-28T05:30:34.750Z,11.048889
2019-04-28T05:34:08.202Z,11.089172
2019-04-28T05:37:40.862Z,11.048889
2019-04-28T05:41:10.787Z,11.028748
2019-04-28T05:44:40.983Z,11.038818
2019-04-28T05:48:11.323Z,11.119385
2019-04-28T05:51:40.616Z,11.129456
2019-04-28T05:55:10.557Z,11.119385
2019-04-28T05:58:40.523Z,11.119385
2019-04-28T06:02:12.233Z,11.17981
2019-04-28T06:05:41.391Z,11.149597
2019-04-28T06:09:11.370Z,11.159668
2019-04-28T06:12:41.264Z,11.149597
2019-04-28T06:16:11.223Z,11.109314
2019-04-28T06:19:41.238Z,11.149597
2019-04-28T06:23:11.169Z,11.109314
2019-04-28T06:26:41.122Z,11.129456
2019-04-28T06:30:11.063Z,11.119385
2019-04-28T06:33:40.986Z,11.17981
2019-04-28T06:37:11.950Z,11.038818
2019-04-28T06:40:41.890Z,11.18988
2019-04-28T06:44:11.967Z,11.250305
2019-04-28T06:47:41.906Z,11.411438
2019-04-28T06:51:11.863Z,11.612854
2019-04-28T06:54:41.838Z,11.824341
2019-04-28T06:58:11.786Z,11.94519
2019-04-28T07:01:41.725Z,12.06604
2019-04-28T07:05:12.771Z,12.136536
2019-04-28T07:08:42.729Z,12.176819
2019-04-28T07:12:12.766Z,12.297668
2019-04-28T07:15:42.730Z,12.277527
2019-04-28T07:19:12.657Z,12.31781
2019-04-28T07:22:42.600Z,12.478943
2019-04-28T07:26:12.540Z,12.609863
2019-04-28T07:29:43.539Z,12.871704
2019-04-28T07:33:13.674Z,12.932129
2019-04-28T07:36:43.739Z,12.962341
2019-04-28T07:40:13.705Z,12.881775
2019-04-28T07:43:43.704Z,12.861633
2019-04-28T07:47:13.725Z,12.841492
2019-04-28T07:50:43.855Z,12.911987
2019-04-28T07:54:13.924Z,12.992554
2019-04-28T07:57:44.008Z,13.163757
2019-04-28T08:01:14.069Z,13.173828
2019-04-28T08:04:44.068Z,13.304749
2019-04-28T08:08:14.112Z,13.385315
2019-04-28T08:11:44.191Z,13.375244
2019-04-28T08:15:14.265Z,13.425598
2019-04-28T08:18:44.338Z,13.566589
2019-04-28T08:22:14.426Z,13.707581
2019-04-28T08:25:44.478Z,13.908997
2019-04-28T08:29:14.549Z,14.110413
2019-04-28T08:32:44.505Z,14.180908
2019-04-28T08:36:15.451Z,14.362183
2019-04-28T08:39:45.771Z,14.412537
2019-04-28T08:43:15.734Z,14.674377
2019-04-28T08:46:46.681Z,14.674377
2019-04-28T08:50:16.610Z,14.714661
2019-04-28T08:53:46.558Z,14.815369
2019-04-28T08:57:16.511Z,14.95636
2019-04-28T09:00:46.433Z,14.986572
2019-04-28T09:04:16.378Z,15.046997
2019-04-28T09:07:46.317Z,15.006714
2019-04-28T09:11:17.364Z,15.198059
2019-04-28T09:14:47.326Z,15.409546
2019-04-28T09:18:17.759Z,15.480042
2019-04-28T09:21:47.694Z,15.58075
2019-04-28T09:25:17.639Z,15.691528
2019-04-28T09:28:47.578Z,15.772095
2019-04-28T09:32:17.509Z,15.731812
2019-04-28T09:35:47.451Z,15.953369
2019-04-28T09:39:17.400Z,15.983582
2019-04-28T09:42:48.318Z,16.003723
2019-04-28T09:46:18.275Z,16.08429
2019-04-28T09:49:48.213Z,16.255493
2019-04-28T09:53:18.274Z,16.164856
2019-04-28T09:56:56.331Z,16.064148
2019-04-28T10:00:22.145Z,16.08429
2019-04-28T10:03:52.691Z,16.003723
2019-04-28T10:07:27.196Z,16.547546
2019-04-28T10:10:57.419Z,16.819458
2019-04-28T10:14:27.629Z,16.990662
2019-04-28T10:17:57.972Z,17.141724
2019-04-28T10:21:28.214Z,16.879883
2019-04-28T10:24:58.253Z,16.487122
2019-04-28T10:28:28.360Z,16.184998
2019-04-28T10:31:59.367Z,16.325989
2019-04-28T10:35:29.374Z,16.184998
2019-04-28T10:38:59.439Z,16.08429
2019-04-28T10:42:29.376Z,16.144714
2019-04-28T10:45:59.338Z,16.759033
2019-04-28T10:49:29.271Z,16.789246
2019-04-28T10:52:59.228Z,17.494202
2019-04-28T10:56:29.268Z,18.148804
2019-04-28T10:59:59.475Z,18.108521
2019-04-28T11:03:29.432Z,17.574768
2019-04-28T11:06:59.369Z,16.900024
2019-04-28T11:10:29.317Z,16.58783
2019-04-28T11:13:59.316Z,16.537476
2019-04-28T11:17:29.249Z,16.567688
2019-04-28T11:20:59.191Z,16.698608
2019-04-28T11:24:29.145Z,16.688538
2019-04-28T11:27:59.133Z,16.728821
2019-04-28T11:31:30.153Z,16.547546
2019-04-28T11:35:00.121Z,16.184998
2019-04-28T11:38:30.074Z,16.184998
2019-04-28T11:42:00.051Z,16.174927
2019-04-28T11:45:30.003Z,16.184998
2019-04-28T11:48:59.955Z,16.164856
2019-04-28T11:52:29.939Z,16.245422
2019-04-28T11:55:59.901Z,16.638184
2019-04-28T11:59:29.917Z,16.58783
2019-04-28T12:02:59.869Z,16.386414
2019-04-28T12:06:29.807Z,16.184998
2019-04-28T12:10:03.963Z,15.953369
2019-04-28T12:13:32.733Z,15.661316
2019-04-28T12:17:02.730Z,15.540466
2019-04-28T12:20:32.683Z,15.520325
2019-04-28T12:24:02.635Z,15.379333
2019-04-28T12:27:32.569Z,15.107422
2019-04-28T12:31:02.522Z,14.895935
2019-04-28T12:34:32.458Z,14.815369
2019-04-28T12:38:02.423Z,14.815369
2019-04-28T12:41:32.394Z,14.70459
2019-04-28T12:45:02.387Z,14.674377
2019-04-28T12:48:32.721Z,14.644165
2019-04-28T12:52:02.505Z,14.563599
2019-04-28T12:55:32.472Z,14.442749
2019-04-28T12:59:02.715Z,14.33197
2019-04-28T13:02:33.751Z,14.221191
2019-04-28T13:06:05.704Z,14.110413
2019-04-28T13:09:34.719Z,13.939209
2019-04-28T13:13:04.783Z,13.757935
2019-04-28T13:16:34.768Z,13.717651
2019-04-28T13:20:05.421Z,13.727722
2019-04-28T13:23:35.365Z,13.747864
2019-04-28T13:27:05.419Z,13.717651
2019-04-28T13:30:36.376Z,13.717651
2019-04-28T13:34:06.286Z,13.707581
2019-04-28T13:37:36.247Z,13.778076
2019-04-28T13:41:06.202Z,13.848572
2019-04-28T13:44:36.164Z,13.969421
2019-04-28T13:48:06.142Z,14.049988
2019-04-28T13:51:36.155Z,14.130554
2019-04-28T13:55:06.227Z,14.311829
2019-04-28T13:58:36.230Z,14.493103
2019-04-28T14:02:06.183Z,14.613953
2019-04-28T14:05:36.331Z,14.644165
2019-04-28T14:09:06.378Z,15.026855
2019-04-28T14:12:36.302Z,15.228271
2019-04-28T14:16:06.243Z,15.379333
2019-04-28T14:19:36.212Z,15.429688
2019-04-28T14:23:06.201Z,15.651245
2019-04-28T14:26:36.086Z,15.701599
2019-04-28T14:30:08.010Z,15.651245
2019-04-28T14:33:38.258Z,15.399475
2019-04-28T14:37:09.400Z,15.288696
2019-04-28T14:40:39.506Z,15.318909
2019-04-28T14:44:11.317Z,15.328979
2019-04-28T14:47:42.441Z,15.510254
2019-04-28T14:51:12.445Z,15.510254
2019-04-28T14:54:43.471Z,15.228271
2019-04-28T14:58:13.553Z,15.006714
2019-04-28T15:01:43.531Z,14.885864
2019-04-28T15:05:13.448Z,14.674377
2019-04-28T15:08:43.354Z,14.765015
2019-04-28T15:12:13.331Z,14.946289
2019-04-28T15:15:44.258Z,14.916077
2019-04-28T15:19:14.279Z,15.248413
2019-04-28T15:22:44.125Z,15.228271
2019-04-28T15:26:14.078Z,15.268555
2019-04-28T15:29:44.050Z,15.449829
2019-04-28T15:33:15.068Z,15.621033
2019-04-28T15:36:47.358Z,15.480042
2019-04-28T15:40:17.833Z,15.399475
2019-04-28T15:43:48.351Z,15.359192
2019-04-28T15:47:18.523Z,15.520325
2019-04-28T15:50:48.899Z,15.359192
2019-04-28T15:54:19.218Z,15.067139
2019-04-28T15:57:49.618Z,14.744873
2019-04-28T16:01:19.992Z,14.855652
2019-04-28T16:04:50.002Z,14.664307
2019-04-28T16:08:19.997Z,14.634094
2019-04-28T16:11:50.012Z,14.523315
2019-04-28T16:15:21.030Z,14.009705
2019-04-28T16:18:50.989Z,13.898926
2019-04-28T16:22:21.041Z,13.778076
2019-04-28T16:25:51.147Z,13.637085
2019-04-28T16:29:22.009Z,13.526306
2019-04-28T16:32:52.055Z,13.566589
2019-04-28T16:36:23.005Z,13.355103
2019-04-28T16:39:52.973Z,13.264465
2019-04-28T16:43:22.930Z,13.163757
2019-04-28T16:46:52.900Z,13.042908
2019-04-28T16:50:22.845Z,13.022766
2019-04-28T16:53:52.806Z,13.042908
2019-04-28T16:57:22.766Z,13.093262
2019-04-28T17:00:53.700Z,12.982483
2019-04-28T17:04:23.664Z,12.962341
2019-04-28T17:07:54.087Z,12.801208
2019-04-28T17:11:24.344Z,12.69043
2019-04-28T17:14:54.317Z,12.680359
2019-04-28T17:18:24.297Z,12.660217
2019-04-28T17:21:54.310Z,12.630005
2019-04-28T17:25:24.668Z,12.579651
2019-04-28T17:28:55.100Z,12.529297
2019-04-28T17:32:25.311Z,12.43866
2019-04-28T17:35:55.387Z,12.43866
2019-04-28T17:39:26.310Z,12.458801
2019-04-28T17:42:56.782Z,12.428589
2019-04-28T17:46:27.070Z,12.408447
2019-04-28T17:49:57.026Z,12.408447
2019-04-28T17:53:27.007Z,12.327881
2019-04-28T17:56:56.944Z,12.327881
2019-04-28T18:00:26.902Z,12.297668
2019-04-28T18:03:56.877Z,12.176819
2019-04-28T18:07:26.811Z,12.035828
2019-04-28T18:10:56.777Z,12.06604
2019-04-28T18:14:26.738Z,11.995544
2019-04-28T18:17:56.693Z,11.94519
2019-04-28T18:21:26.691Z,11.894836
2019-04-28T18:24:56.662Z,11.804199
2019-04-28T18:28:26.620Z,11.773987
2019-04-28T18:31:56.642Z,11.713562
2019-04-28T18:35:27.740Z,11.703491
2019-04-28T18:38:57.838Z,11.663208
2019-04-28T18:42:27.949Z,11.582642
2019-04-28T18:45:58.047Z,11.522217
2019-04-28T18:49:28.148Z,11.542358
2019-04-28T18:52:58.331Z,11.461792
2019-04-28T18:56:28.487Z,11.340942
2019-04-28T18:59:58.594Z,11.371155
2019-04-28T19:03:28.574Z,11.31073
2019-04-28T19:07:05.096Z,11.280518
2019-04-28T19:10:31.537Z,11.270447
2019-04-28T19:14:02.470Z,11.300659
2019-04-28T19:17:32.466Z,11.220093
2019-04-28T19:21:02.421Z,11.17981
2019-04-28T19:24:32.418Z,11.17981
2019-04-28T19:28:03.431Z,11.230164
2019-04-28T19:31:33.563Z,11.230164
2019-04-28T19:35:03.644Z,11.230164
2019-04-28T19:38:33.823Z,11.220093
2019-04-28T19:42:03.905Z,11.18988
2019-04-28T19:45:34.041Z,11.220093
2019-04-28T19:49:04.204Z,11.270447
2019-04-28T19:52:34.234Z,11.230164
2019-04-28T19:56:06.410Z,11.230164
2019-04-28T19:59:36.439Z,11.280518
2019-04-28T20:03:06.445Z,11.280518
2019-04-28T20:06:36.559Z,11.330872
2019-04-28T20:10:06.606Z,11.330872
2019-04-28T20:13:36.629Z,11.361084
2019-04-28T20:17:06.625Z,11.371155
2019-04-28T20:20:36.633Z,11.371155
2019-04-28T20:24:06.653Z,11.330872
2019-04-28T20:27:36.597Z,11.280518
2019-04-28T20:31:07.547Z,11.280518
2019-04-28T20:34:37.920Z,11.18988
2019-04-28T20:38:07.829Z,11.119385
2019-04-28T20:41:37.939Z,11.048889
2019-04-28T20:45:08.031Z,10.93811
2019-04-28T20:48:37.992Z,10.92804
2019-04-28T20:52:08.518Z,10.907898
2019-04-28T20:55:38.601Z,10.857544
2019-04-28T20:59:08.614Z,10.857544
2019-04-28T21:02:38.585Z,10.897827
2019-04-28T21:06:08.662Z,10.857544
2019-04-28T21:09:38.607Z,10.867615
2019-04-28T21:13:08.575Z,10.897827
2019-04-28T21:16:38.524Z,10.92804
2019-04-28T21:20:08.459Z,10.92804
2019-04-28T21:23:38.424Z,10.968323
2019-04-28T21:27:08.396Z,10.948181
2019-04-28T21:30:38.393Z,10.948181
2019-04-28T21:34:08.303Z,10.948181
2019-04-28T21:37:38.259Z,10.948181
2019-04-28T21:41:08.206Z,10.948181
2019-04-28T21:44:39.136Z,10.948181
2019-04-28T21:48:09.072Z,10.948181
2019-04-28T21:51:39.016Z,10.968323
2019-04-28T21:55:08.939Z,10.93811
2019-04-28T21:58:38.880Z,10.948181
